Terminal Aerodrome Forecast
Issued by NWS New Orleans/Baton Rouge, LA

Home | Current Version | Previous Version | Text Only | Print | Product List | Glossary On
Versions: 1 2 3 4 5 6 7 8 9 10 11 12 13 14 15 16 17 18 19 20 21 22 23 24 25 26
000
FTUS44 KLIX 181721
TAFBTR
TAF
KBTR 181721Z 1818/1918 16006KT P6SM VCSH SCT100
      TEMPO 1820/1824 VRB15KT 4SM -SHRA BKN030
     FM190000 VRB03KT P6SM BKN250=

USA.gov is the U.S. government's official web portal to all federal, state and local government web resources and services.